createdAt,value
2022-07-29T00:00:01.157Z,102001.97
2022-07-29T00:02:28.814Z,101993.47
2022-07-29T00:04:55.672Z,101992.66
2022-07-29T00:07:22.167Z,101986.00
2022-07-29T00:09:51.983Z,101993.13
2022-07-29T00:12:21.395Z,101991.56
2022-07-29T00:14:53.071Z,101996.72
2022-07-29T00:17:19.487Z,101990.81
2022-07-29T00:19:45.958Z,101977.09
2022-07-29T00:22:12.378Z,101981.50
2022-07-29T00:24:38.800Z,101974.69
2022-07-29T00:27:05.272Z,101978.09
2022-07-29T00:29:33.925Z,101978.09
2022-07-29T00:32:01.476Z,101973.06
2022-07-29T00:34:46.775Z,101963.78
2022-07-29T00:37:13.225Z,101959.66
2022-07-29T00:39:39.706Z,101956.38
2022-07-29T00:42:06.571Z,101956.44
2022-07-29T00:44:37.795Z,101959.91
2022-07-29T00:47:04.358Z,101949.63
2022-07-29T00:49:30.892Z,101946.25
2022-07-29T00:51:58.177Z,101950.56
2022-07-29T00:54:24.725Z,101945.47
2022-07-29T00:56:51.173Z,101947.19
2022-07-29T00:59:17.616Z,101942.03
2022-07-29T01:01:44.138Z,101951.59
2022-07-29T01:04:10.745Z,101947.25
2022-07-29T01:06:37.506Z,101940.31
2022-07-29T01:09:04.252Z,101940.44
2022-07-29T01:11:30.697Z,101937.97
2022-07-29T01:13:57.859Z,101937.25
2022-07-29T01:16:43.121Z,101937.25
2022-07-29T01:19:49.917Z,101932.81
2022-07-29T01:22:29.856Z,101932.06
2022-07-29T01:25:33.143Z,101931.38
2022-07-29T01:28:18.239Z,101933.28
2022-07-29T01:30:47.415Z,101930.63
2022-07-29T01:33:38.313Z,101922.94
2022-07-29T01:36:12.903Z,101926.53
2022-07-29T01:38:42.275Z,101936.13
2022-07-29T01:41:17.429Z,101935.34
2022-07-29T01:43:57.110Z,101934.50
2022-07-29T01:46:32.999Z,101934.50
2022-07-29T01:49:09.576Z,101932.84
2022-07-29T01:51:55.359Z,101940.59
2022-07-29T01:54:38.270Z,101938.94
2022-07-29T01:57:07.795Z,101937.38
2022-07-29T01:59:37.532Z,101933.91
2022-07-29T02:02:07.236Z,101936.50
2022-07-29T02:04:36.818Z,101931.41
2022-07-29T02:07:07.002Z,101927.97
2022-07-29T02:09:36.883Z,101927.91
2022-07-29T02:12:04.910Z,101932.19
2022-07-29T02:14:39.419Z,101930.34
2022-07-29T02:17:06.116Z,101932.09
2022-07-29T02:19:34.518Z,101928.63
2022-07-29T02:22:02.575Z,101923.59
2022-07-29T02:24:30.829Z,101927.81
2022-07-29T02:27:00.423Z,101922.63
2022-07-29T02:29:29.489Z,101921.88
2022-07-29T02:31:58.015Z,101919.41
2022-07-29T02:34:25.568Z,101921.97
2022-07-29T02:36:53.156Z,101920.28
2022-07-29T02:39:20.737Z,101916.88
2022-07-29T02:41:59.644Z,101925.50
2022-07-29T02:44:31.284Z,101917.81
2022-07-29T02:47:12.289Z,101916.94
2022-07-29T02:49:56.162Z,101911.91
2022-07-29T02:53:06.648Z,101908.53
2022-07-29T02:55:38.311Z,101911.16
2022-07-29T02:58:14.461Z,101918.06
2022-07-29T03:00:41.918Z,101917.97
2022-07-29T03:03:17.026Z,101920.59
2022-07-29T03:05:43.798Z,101914.59
2022-07-29T03:08:12.579Z,101912.06
2022-07-29T03:10:46.478Z,101912.84
2022-07-29T03:13:14.104Z,101909.38
2022-07-29T03:15:40.923Z,101914.59
2022-07-29T03:18:07.927Z,101905.16
2022-07-29T03:20:34.498Z,101899.09
2022-07-29T03:23:01.258Z,101903.41
2022-07-29T03:25:28.352Z,101898.22
2022-07-29T03:27:54.987Z,101893.09
2022-07-29T03:30:22.227Z,101898.31
2022-07-29T03:32:52.080Z,101902.75
2022-07-29T03:35:20.421Z,101894.13
2022-07-29T03:37:47.261Z,101886.50
2022-07-29T03:40:19.110Z,101885.69
2022-07-29T03:42:46.671Z,101885.69
2022-07-29T03:45:19.070Z,101884.00
2022-07-29T03:47:57.073Z,101881.44
2022-07-29T03:50:26.757Z,101877.19
2022-07-29T03:52:53.493Z,101880.59
2022-07-29T03:55:20.234Z,101884.00
2022-07-29T03:57:48.281Z,101879.81
2022-07-29T04:00:16.414Z,101878.97
2022-07-29T04:02:49.142Z,101881.50
2022-07-29T04:05:16.930Z,101884.06
2022-07-29T04:07:48.016Z,101881.44
2022-07-29T04:10:16.710Z,101878.84
2022-07-29T04:12:43.691Z,101881.34
2022-07-29T04:15:10.744Z,101874.44
2022-07-29T04:17:37.527Z,101875.28
2022-07-29T04:20:05.033Z,101877.88
2022-07-29T04:22:31.721Z,101879.50
2022-07-29T04:25:03.348Z,101880.47
2022-07-29T04:27:30.532Z,101880.47
2022-07-29T04:29:57.609Z,101871.84
2022-07-29T04:32:24.860Z,101868.56
2022-07-29T04:34:51.540Z,101876.25
2022-07-29T04:37:18.191Z,101870.22
2022-07-29T04:39:44.653Z,101873.69
2022-07-29T04:42:11.098Z,101870.22
2022-07-29T04:44:39.703Z,101879.53
2022-07-29T04:47:09.848Z,101878.72
2022-07-29T04:49:39.021Z,101886.44
2022-07-29T04:52:06.572Z,101890.78
2022-07-29T04:54:33.146Z,101880.47
2022-07-29T04:56:59.597Z,101880.47
2022-07-29T04:59:27.584Z,101871.91
2022-07-29T05:01:54.137Z,101870.16
2022-07-29T05:04:21.010Z,101876.19
2022-07-29T05:06:48.677Z,101880.47
2022-07-29T05:09:15.339Z,101883.94
2022-07-29T05:11:41.792Z,101885.56
2022-07-29T05:14:08.245Z,101882.94
2022-07-29T05:16:34.972Z,101886.25
2022-07-29T05:19:01.517Z,101880.16
2022-07-29T05:21:27.966Z,101885.25
2022-07-29T05:23:54.406Z,101885.03
2022-07-29T05:26:22.042Z,101891.75
2022-07-29T05:28:48.558Z,101887.31
2022-07-29T05:31:15.839Z,101893.91
2022-07-29T05:33:42.578Z,101910.22
2022-07-29T05:36:09.633Z,101904.81
2022-07-29T05:38:37.040Z,101910.56
2022-07-29T05:41:03.886Z,101905.16
2022-07-29T05:43:30.908Z,101895.63
2022-07-29T05:45:57.792Z,101897.19
2022-07-29T05:48:24.722Z,101896.03
2022-07-29T05:50:51.210Z,101897.41
2022-07-29T05:53:19.597Z,101893.75
2022-07-29T05:55:46.811Z,101905.56
2022-07-29T05:58:13.449Z,101904.59
2022-07-29T06:00:39.888Z,101899.00
2022-07-29T06:03:06.482Z,101907.97
2022-07-29T06:05:32.975Z,101905.94
2022-07-29T06:07:59.439Z,101906.25
2022-07-29T06:10:26.318Z,101901.00
2022-07-29T06:12:53.768Z,101902.47
2022-07-29T06:15:20.520Z,101899.88
2022-07-29T06:18:00.853Z,101905.06
2022-07-29T06:20:32.283Z,101906.09
2022-07-29T06:22:59.138Z,101919.03
2022-07-29T06:25:25.847Z,101925.94
2022-07-29T06:27:53.256Z,101931.25
2022-07-29T06:30:19.755Z,101938.19
2022-07-29T06:32:46.233Z,101946.03
2022-07-29T06:35:37.689Z,101936.13
2022-07-29T06:37:59.993Z,101938.97
2022-07-29T06:40:45.491Z,101938.88
2022-07-29T06:43:11.973Z,101930.78
2022-07-29T06:45:42.160Z,101937.44
2022-07-29T06:48:08.743Z,101938.59
2022-07-29T06:50:35.150Z,101937.09
2022-07-29T06:53:01.561Z,101936.16
2022-07-29T06:55:28.275Z,101945.81
2022-07-29T06:57:54.671Z,101943.63
2022-07-29T07:00:21.434Z,101933.22
2022-07-29T07:02:47.886Z,101942.53
2022-07-29T07:05:14.449Z,101933.59
2022-07-29T07:07:40.854Z,101945.41
2022-07-29T07:10:07.689Z,101945.72
2022-07-29T07:12:34.141Z,101937.06
2022-07-29T07:15:00.853Z,101936.66
2022-07-29T07:17:27.300Z,101940.66
2022-07-29T07:19:53.760Z,101936.56
2022-07-29T07:22:20.246Z,101950.28
2022-07-29T07:24:46.681Z,101941.19
2022-07-29T07:27:13.156Z,101942.34
2022-07-29T07:29:42.051Z,101941.72
2022-07-29T07:32:11.044Z,101939.38
2022-07-29T07:34:38.769Z,101936.78
2022-07-29T07:37:06.551Z,101930.63
2022-07-29T07:39:33.036Z,101927.03
2022-07-29T07:41:59.629Z,101920.66
2022-07-29T07:44:26.106Z,101910.13
2022-07-29T07:46:52.670Z,101911.03
2022-07-29T07:49:19.647Z,101914.41
2022-07-29T07:51:50.867Z,101920.88
2022-07-29T07:54:18.434Z,101909.38
2022-07-29T07:56:49.943Z,101915.00
2022-07-29T07:59:19.453Z,101909.13
2022-07-29T08:01:47.992Z,101912.72
2022-07-29T08:04:27.502Z,101907.75
2022-07-29T08:06:55.245Z,101903.84
2022-07-29T08:09:29.445Z,101901.53
2022-07-29T08:11:57.592Z,101911.22
2022-07-29T08:14:24.058Z,101905.06
2022-07-29T08:16:50.811Z,101908.22
2022-07-29T08:19:17.488Z,101902.94
2022-07-29T08:21:43.925Z,101904.66
2022-07-29T08:24:28.864Z,101905.50
2022-07-29T08:26:55.533Z,101902.00
2022-07-29T08:29:22.019Z,101907.19
2022-07-29T08:31:48.498Z,101901.56
2022-07-29T08:34:15.148Z,101907.00
2022-07-29T08:36:41.686Z,101900.34
2022-07-29T08:39:08.285Z,101907.91
2022-07-29T08:41:34.869Z,101911.91
2022-07-29T08:44:01.329Z,101913.69
2022-07-29T08:46:27.868Z,101918.16
2022-07-29T08:48:55.673Z,101912.75
2022-07-29T08:51:22.680Z,101915.91
2022-07-29T08:53:51.216Z,101913.66
2022-07-29T08:56:19.749Z,101916.91
2022-07-29T08:58:52.288Z,101904.66
2022-07-29T09:01:35.129Z,101911.09
2022-07-29T09:04:05.580Z,101913.84
2022-07-29T09:06:34.311Z,101915.38
2022-07-29T09:09:01.376Z,101908.44
2022-07-29T09:11:28.167Z,101907.22
2022-07-29T09:13:55.068Z,101915.06
2022-07-29T09:16:50.955Z,101905.34
2022-07-29T09:19:21.415Z,101903.25
2022-07-29T09:22:00.121Z,101903.44
2022-07-29T09:24:40.124Z,101910.44
2022-07-29T09:27:20.743Z,101905.13
2022-07-29T09:29:47.740Z,101908.16
2022-07-29T09:32:14.340Z,101902.81
2022-07-29T09:34:40.811Z,101908.66
2022-07-29T09:37:07.362Z,101905.88
2022-07-29T09:39:37.355Z,101904.91
2022-07-29T09:42:06.257Z,101904.31
2022-07-29T09:44:44.094Z,101902.22
2022-07-29T09:47:10.957Z,101892.63
2022-07-29T09:49:52.706Z,101886.31
2022-07-29T09:52:19.198Z,101886.94
2022-07-29T09:54:45.925Z,101889.72
2022-07-29T09:57:30.883Z,101882.97
2022-07-29T10:00:06.380Z,101883.91
2022-07-29T10:02:35.176Z,101897.72
2022-07-29T10:05:04.882Z,101892.00
2022-07-29T10:07:57.351Z,101891.78
2022-07-29T10:10:30.441Z,101892.22
2022-07-29T10:13:04.405Z,101901.75
2022-07-29T10:15:52.310Z,101900.66
2022-07-29T10:18:20.988Z,101893.34
2022-07-29T10:20:47.892Z,101898.13
2022-07-29T10:23:14.973Z,101901.28
2022-07-29T10:25:52.880Z,101904.78
2022-07-29T10:28:19.308Z,101900.63
2022-07-29T10:30:47.774Z,101897.09
2022-07-29T10:33:38.284Z,101896.69
2022-07-29T10:36:17.585Z,101899.31
2022-07-29T10:39:18.374Z,101893.88
2022-07-29T10:42:20.004Z,101896.69
2022-07-29T10:44:47.696Z,101894.56
2022-07-29T10:47:28.005Z,101893.88
2022-07-29T10:49:58.641Z,101895.13
2022-07-29T10:52:59.510Z,101900.03
2022-07-29T10:56:11.433Z,101890.34
2022-07-29T10:58:42.412Z,101888.81
2022-07-29T11:01:37.072Z,101892.53
2022-07-29T11:04:06.186Z,101887.69
2022-07-29T11:07:10.662Z,101894.28
2022-07-29T11:09:38.489Z,101894.28
2022-07-29T11:12:25.985Z,101896.69
2022-07-29T11:14:53.079Z,101887.94
2022-07-29T11:17:19.825Z,101880.34
2022-07-29T11:19:52.107Z,101895.97
2022-07-29T11:22:35.147Z,101893.22
2022-07-29T11:25:50.305Z,101889.44
2022-07-29T11:28:22.960Z,101886.38
2022-07-29T11:30:54.199Z,101884.50
2022-07-29T11:33:54.581Z,101888.47
2022-07-29T11:36:20.088Z,101889.69
2022-07-29T11:39:27.037Z,101897.41
2022-07-29T11:42:28.343Z,101884.56
2022-07-29T11:45:44.273Z,101882.53
2022-07-29T11:50:49.509Z,101882.72
2022-07-29T11:53:16.503Z,101884.16
2022-07-29T11:55:51.217Z,101872.09
2022-07-29T11:58:24.853Z,101875.00
2022-07-29T12:00:52.631Z,101878.47
2022-07-29T12:03:35.387Z,101876.91
2022-07-29T12:06:04.077Z,101875.47
2022-07-29T12:08:31.189Z,101873.25
2022-07-29T12:10:57.823Z,101867.69
2022-07-29T12:13:37.663Z,101869.44
2022-07-29T12:16:07.453Z,101866.00
2022-07-29T12:18:34.006Z,101873.50
2022-07-29T12:21:05.307Z,101870.50
2022-07-29T12:23:34.978Z,101872.25
2022-07-29T12:26:04.627Z,101877.97
2022-07-29T12:28:32.065Z,101872.81
2022-07-29T12:30:58.710Z,101879.84
2022-07-29T12:33:28.582Z,101878.66
2022-07-29T12:36:09.429Z,101880.19
2022-07-29T12:38:41.585Z,101879.31
2022-07-29T12:41:08.122Z,101871.91
2022-07-29T12:43:34.589Z,101866.69
2022-07-29T12:46:15.743Z,101876.59
2022-07-29T12:48:44.070Z,101874.56
2022-07-29T12:51:12.834Z,101878.53
2022-07-29T12:53:39.401Z,101874.22
2022-07-29T12:56:20.770Z,101870.66
2022-07-29T12:58:53.540Z,101872.16
2022-07-29T13:01:22.316Z,101876.47
2022-07-29T13:03:57.608Z,101871.78
2022-07-29T13:06:30.471Z,101869.16
2022-07-29T13:09:08.164Z,101866.69
2022-07-29T13:11:48.150Z,101859.13
2022-07-29T13:14:32.687Z,101861.38
2022-07-29T13:17:13.323Z,101865.59
2022-07-29T13:19:45.500Z,101866.81
2022-07-29T13:22:14.234Z,101863.00
2022-07-29T13:24:51.490Z,101864.16
2022-07-29T13:27:20.205Z,101863.00
2022-07-29T13:29:47.486Z,101866.81
2022-07-29T13:32:14.877Z,101875.56
2022-07-29T13:34:41.951Z,101864.63
2022-07-29T13:37:08.517Z,101861.97
2022-07-29T13:39:35.082Z,101859.88
2022-07-29T13:42:02.120Z,101854.91
2022-07-29T13:44:28.689Z,101858.47
2022-07-29T13:46:55.148Z,101857.47
2022-07-29T13:49:21.645Z,101855.84
2022-07-29T13:51:48.190Z,101852.50
2022-07-29T13:54:14.718Z,101858.81
2022-07-29T13:56:44.345Z,101855.19
2022-07-29T13:59:13.154Z,101847.22
2022-07-29T14:01:42.622Z,101851.50
2022-07-29T14:04:10.828Z,101853.75
2022-07-29T14:06:40.577Z,101853.66
2022-07-29T14:09:10.146Z,101847.72
2022-07-29T14:11:37.295Z,101844.72
2022-07-29T14:14:03.926Z,101842.81
2022-07-29T14:16:30.561Z,101838.97
2022-07-29T14:18:57.159Z,101837.88
2022-07-29T14:21:23.799Z,101844.31
2022-07-29T14:23:53.100Z,101845.22
2022-07-29T14:26:24.215Z,101841.34
2022-07-29T14:28:51.168Z,101850.25
2022-07-29T14:31:17.834Z,101841.88
2022-07-29T14:33:46.244Z,101847.72
2022-07-29T14:36:17.255Z,101846.25
2022-07-29T14:38:44.530Z,101851.72
2022-07-29T14:41:11.169Z,101855.03
2022-07-29T14:43:37.854Z,101851.91
2022-07-29T14:46:08.314Z,101851.63
2022-07-29T14:48:35.126Z,101850.19
2022-07-29T14:51:04.718Z,101853.16
2022-07-29T14:53:31.669Z,101845.03
2022-07-29T14:56:10.293Z,101843.41
2022-07-29T14:58:51.512Z,101846.72
2022-07-29T15:01:18.348Z,101850.56
2022-07-29T15:03:44.955Z,101855.25
2022-07-29T15:06:11.627Z,101846.69
2022-07-29T15:08:38.431Z,101845.00
2022-07-29T15:11:05.037Z,101849.84
2022-07-29T15:13:31.548Z,101854.84
2022-07-29T15:16:00.222Z,101851.50
2022-07-29T15:18:29.297Z,101852.50
2022-07-29T15:20:55.796Z,101853.47
2022-07-29T15:23:22.431Z,101852.56
2022-07-29T15:25:50.008Z,101865.53
2022-07-29T15:28:16.579Z,101853.88
2022-07-29T15:30:43.520Z,101854.00
2022-07-29T15:33:10.648Z,101860.78
2022-07-29T15:35:40.586Z,101864.22
2022-07-29T15:38:07.956Z,101861.47
2022-07-29T15:40:34.643Z,101855.06
2022-07-29T15:43:06.871Z,101850.81
2022-07-29T15:46:06.805Z,101850.97
2022-07-29T15:48:33.593Z,101853.47
2022-07-29T15:51:01.028Z,101849.34
2022-07-29T15:53:27.547Z,101844.28
2022-07-29T15:55:54.183Z,101843.41
2022-07-29T15:58:20.815Z,101844.66
2022-07-29T16:00:48.028Z,101847.16
2022-07-29T16:03:18.091Z,101849.34
2022-07-29T16:05:44.747Z,101847.59
2022-07-29T16:08:11.333Z,101847.97
2022-07-29T16:10:37.990Z,101847.78
2022-07-29T16:13:07.414Z,101847.31
2022-07-29T16:15:34.059Z,101846.44
2022-07-29T16:18:00.895Z,101839.09
2022-07-29T16:20:30.256Z,101840.09
2022-07-29T16:22:56.928Z,101847.44
2022-07-29T16:25:38.361Z,101846.84
2022-07-29T16:28:13.352Z,101850.19
2022-07-29T16:30:39.984Z,101852.41
2022-07-29T16:33:08.479Z,101844.47
2022-07-29T16:35:39.530Z,101840.53
2022-07-29T16:38:06.829Z,101836.00
2022-07-29T16:40:35.917Z,101841.47
2022-07-29T16:43:02.757Z,101845.84
2022-07-29T16:45:32.670Z,101843.09
2022-07-29T16:48:12.307Z,101845.13
2022-07-29T16:50:39.640Z,101842.72
2022-07-29T16:53:06.564Z,101843.28
2022-07-29T16:55:33.500Z,101841.63
2022-07-29T16:58:00.099Z,101841.50
2022-07-29T17:00:26.651Z,101844.56
2022-07-29T17:02:53.203Z,101846.69
2022-07-29T17:05:19.833Z,101844.66
2022-07-29T17:07:46.510Z,101851.81
2022-07-29T17:10:13.283Z,101844.16
2022-07-29T17:12:41.138Z,101848.41
2022-07-29T17:15:09.975Z,101846.47
2022-07-29T17:17:39.283Z,101846.63
2022-07-29T17:20:22.198Z,101847.06
2022-07-29T17:22:48.771Z,101847.41
2022-07-29T17:25:20.446Z,101850.19
2022-07-29T17:27:51.266Z,101855.97
2022-07-29T17:30:18.290Z,101847.81
2022-07-29T17:32:44.871Z,101850.28
2022-07-29T17:35:31.178Z,101848.72
2022-07-29T17:38:00.141Z,101853.38
2022-07-29T17:40:26.670Z,101853.59
2022-07-29T17:42:53.275Z,101862.22
2022-07-29T17:45:19.820Z,101857.34
2022-07-29T17:47:47.833Z,101866.34
2022-07-29T17:50:14.566Z,101865.81
2022-07-29T17:52:41.756Z,101869.28
2022-07-29T17:55:10.347Z,101867.03
2022-07-29T17:57:36.903Z,101872.75
2022-07-29T18:00:05.509Z,101874.91
2022-07-29T18:02:37.627Z,101868.50
2022-07-29T18:05:05.269Z,101876.06
2022-07-29T18:07:31.818Z,101879.06
2022-07-29T18:10:00.550Z,101875.00
2022-07-29T18:12:27.618Z,101875.66
2022-07-29T18:14:54.066Z,101881.91
2022-07-29T18:17:20.524Z,101876.50
2022-07-29T18:19:48.224Z,101876.03
2022-07-29T18:22:15.220Z,101881.03
2022-07-29T18:24:44.661Z,101880.06
2022-07-29T18:27:11.209Z,101882.88
2022-07-29T18:29:37.882Z,101885.13
2022-07-29T18:32:05.011Z,101889.19
2022-07-29T18:34:32.159Z,101888.56
2022-07-29T18:37:01.822Z,101886.31
2022-07-29T18:39:29.408Z,101890.22
2022-07-29T18:41:56.034Z,101892.09
2022-07-29T18:44:24.972Z,101893.25
2022-07-29T18:46:54.352Z,101899.31
2022-07-29T18:49:21.906Z,101899.50
2022-07-29T18:51:49.816Z,101905.47
2022-07-29T18:54:20.179Z,101892.22
2022-07-29T18:56:47.756Z,101897.50
2022-07-29T18:59:19.758Z,101904.25
2022-07-29T19:01:47.425Z,101910.31
2022-07-29T19:04:14.732Z,101912.97
2022-07-29T19:06:44.903Z,101918.38
2022-07-29T19:09:11.484Z,101916.84
2022-07-29T19:11:38.703Z,101925.75
2022-07-29T19:14:06.302Z,101929.91
2022-07-29T19:16:34.088Z,101930.44
2022-07-29T19:19:03.462Z,101930.94
2022-07-29T19:21:30.529Z,101939.38
2022-07-29T19:24:01.608Z,101936.44
2022-07-29T19:26:36.579Z,101938.84
2022-07-29T19:29:04.129Z,101941.81
2022-07-29T19:31:33.286Z,101945.31
2022-07-29T19:34:03.017Z,101953.00
2022-07-29T19:36:31.855Z,101949.75
2022-07-29T19:38:59.953Z,101951.72
2022-07-29T19:41:27.375Z,101954.09
2022-07-29T19:43:54.203Z,101956.44
2022-07-29T19:46:24.575Z,101963.72
2022-07-29T19:48:51.099Z,101975.47
2022-07-29T19:51:17.655Z,101975.44
2022-07-29T19:53:44.193Z,101968.00
2022-07-29T19:56:13.762Z,101977.97
2022-07-29T19:58:41.746Z,101982.72
2022-07-29T20:01:10.960Z,101974.34
2022-07-29T20:03:40.547Z,101987.66
2022-07-29T20:06:07.669Z,101980.09
2022-07-29T20:08:34.365Z,101988.28
2022-07-29T20:11:00.948Z,101985.94
2022-07-29T20:13:27.550Z,101985.31
2022-07-29T20:15:54.128Z,101985.84
2022-07-29T20:18:20.688Z,101982.75
2022-07-29T20:20:48.192Z,101992.69
2022-07-29T20:23:16.002Z,101991.19
2022-07-29T20:25:42.635Z,101993.28
2022-07-29T20:28:09.150Z,101988.69
2022-07-29T20:30:35.679Z,101998.03
2022-07-29T20:33:05.172Z,101995.59
2022-07-29T20:35:31.896Z,101997.53
2022-07-29T20:37:58.474Z,101998.72
2022-07-29T20:40:26.662Z,102002.25
2022-07-29T20:42:54.728Z,102002.50
2022-07-29T20:45:25.616Z,102002.03
2022-07-29T20:47:52.819Z,102009.25
2022-07-29T20:50:23.869Z,101999.97
2022-07-29T20:52:51.619Z,102001.66
2022-07-29T20:55:18.180Z,102001.84
2022-07-29T20:57:44.688Z,102004.53
2022-07-29T21:00:11.950Z,102006.53
2022-07-29T21:02:38.878Z,102015.59
2022-07-29T21:05:08.880Z,102017.84
2022-07-29T21:07:35.686Z,102018.06
2022-07-29T21:10:02.450Z,102020.06
2022-07-29T21:12:30.193Z,102020.41
2022-07-29T21:15:13.592Z,102031.44
2022-07-29T21:17:46.419Z,102031.69
2022-07-29T21:20:15.437Z,102032.59
2022-07-29T21:22:42.419Z,102035.38
2022-07-29T21:25:10.708Z,102037.38
2022-07-29T21:27:56.275Z,102034.16
2022-07-29T21:30:23.012Z,102027.75
2022-07-29T21:32:49.533Z,102028.72
2022-07-29T21:35:35.758Z,102027.22
2022-07-29T21:38:02.832Z,102027.59
2022-07-29T21:40:31.525Z,102035.63
2022-07-29T21:42:58.107Z,102029.88
2022-07-29T21:45:25.491Z,102023.28
2022-07-29T21:47:52.054Z,102018.31
2022-07-29T21:50:18.815Z,102020.06
2022-07-29T21:52:45.452Z,102028.19
2022-07-29T21:55:13.626Z,102018.78
2022-07-29T21:57:40.460Z,102017.28
2022-07-29T22:00:10.366Z,102013.13
2022-07-29T22:02:37.094Z,102014.94
2022-07-29T22:05:04.161Z,102009.19
2022-07-29T22:07:54.672Z,102015.22
2022-07-29T22:10:17.347Z,102014.38
2022-07-29T22:12:43.823Z,102011.25
2022-07-29T22:15:11.220Z,102007.13
2022-07-29T22:17:39.770Z,102007.25
2022-07-29T22:20:06.699Z,102013.41
2022-07-29T22:22:33.209Z,102010.00
2022-07-29T22:24:59.790Z,102006.56
2022-07-29T22:27:26.289Z,102010.16
2022-07-29T22:29:52.737Z,102012.81
2022-07-29T22:32:19.320Z,102016.41
2022-07-29T22:34:46.706Z,102024.19
2022-07-29T22:37:13.250Z,102016.59
2022-07-29T22:39:39.721Z,102017.81
2022-07-29T22:42:06.368Z,102016.47
2022-07-29T22:44:33.247Z,102016.03
2022-07-29T22:47:00.733Z,102013.66
2022-07-29T22:49:28.556Z,102012.28
2022-07-29T22:51:55.036Z,102008.25
2022-07-29T22:54:21.759Z,102012.84
2022-07-29T22:56:48.452Z,102019.88
2022-07-29T22:59:14.922Z,102019.81
2022-07-29T23:01:41.437Z,102020.88
2022-07-29T23:04:07.993Z,102027.84
2022-07-29T23:06:34.632Z,102022.81
2022-07-29T23:09:01.156Z,102019.25
2022-07-29T23:11:28.285Z,102019.38
2022-07-29T23:13:54.710Z,102025.59
2022-07-29T23:16:26.447Z,102020.81
2022-07-29T23:18:53.861Z,102020.31
2022-07-29T23:21:20.934Z,102024.03
2022-07-29T23:23:48.493Z,102020.06
2022-07-29T23:26:16.833Z,102021.28
2022-07-29T23:28:44.692Z,102029.69
2022-07-29T23:31:11.644Z,102030.00
2022-07-29T23:33:38.219Z,102027.59
2022-07-29T23:36:04.749Z,102029.66
2022-07-29T23:38:31.311Z,102029.78
2022-07-29T23:40:58.712Z,102027.44
2022-07-29T23:43:25.266Z,102030.97
2022-07-29T23:45:51.787Z,102025.22
2022-07-29T23:48:20.791Z,102033.94
2022-07-29T23:50:47.287Z,102038.34
2022-07-29T23:53:13.764Z,102029.63
2022-07-29T23:55:40.243Z,102022.84
2022-07-29T23:58:06.689Z,102021.34
